Time;durP1;ratioP1;P1;durP2;ratioP2;P2;SDS_P1;SDS_P2;PMS_P1;PMS_P2;Temp;Humidity;BMP_temperature;BMP_pressure;BME280_temperature;BME280_humidity;BME280_pressure;Samples;Min_cycle;Max_cycle;Signal;HPM_P1;HPM_P2
2023/10/21 00:01:08;;;;;;;;;;;15.70;99.90;;;15.93;nan;97700.81;4987256;28;19954;-66
2023/10/21 00:03:35;;;;;;;;;;;15.60;99.90;;;15.96;nan;97702.22;4991727;28;20430;-66
2023/10/21 00:06:03;;;;;;;;;;;15.70;99.90;;;15.95;nan;97706.66;4984241;28;19946;-65
2023/10/21 00:08:30;;;;;;;;;;;15.60;99.90;;;15.95;nan;97711.91;4981882;28;20291;-66
2023/10/21 00:11:02;;;;;;;;;;;15.70;99.90;;;15.95;nan;97729.53;4998743;28;20025;-66
2023/10/21 00:13:29;;;;;;;;;;;15.70;99.90;;;15.97;nan;97727.50;4992016;28;19962;-65
2023/10/21 00:15:56;;;;;;;;;;;15.60;99.90;;;15.96;nan;97733.75;4989954;28;20301;-65
2023/10/21 00:18:25;;;;;;;;;;;15.60;99.90;;;15.95;nan;97738.22;4992910;28;19947;-65
2023/10/21 00:20:56;;;;;;;;;;;15.60;99.90;;;15.99;nan;97746.50;4996200;28;19944;-66
2023/10/21 00:23:23;;;;;;;;;;;15.70;99.90;;;15.98;nan;97739.63;4992566;28;19953;-66
2023/10/21 00:25:50;;;;;;;;;;;15.70;99.90;;;15.99;nan;97747.28;4991743;28;19954;-66
2023/10/21 00:28:17;;;;;;;;;;;15.70;99.90;;;15.93;nan;97753.41;4985325;28;19951;-66
2023/10/21 00:30:45;;;;;;;;;;;15.60;99.90;;;15.96;nan;97749.53;5004530;28;20307;-66
2023/10/21 00:33:13;;;;;;;;;;;15.60;99.90;;;15.95;nan;97751.34;4985243;28;19962;-66
2023/10/21 00:35:44;;;;;;;;;;;15.60;99.90;;;15.95;nan;97761.09;4986269;28;19950;-66
2023/10/21 00:38:12;;;;;;;;;;;15.60;99.90;;;16.00;nan;97758.63;4979964;28;20481;-65
2023/10/21 00:40:49;;;;;;;;;;;15.70;99.90;;;16.06;nan;97760.38;4990950;28;19978;-66
2023/10/21 00:43:42;;;;;;;;;;;15.70;99.90;;;16.13;nan;97743.53;4990060;28;19941;-64
2023/10/21 00:46:16;;;;;;;;;;;15.80;99.90;;;16.15;nan;97762.53;4991208;28;19953;-66
2023/10/21 00:48:47;;;;;;;;;;;15.90;99.90;;;16.24;nan;97757.81;4989470;28;20625;-66
2023/10/21 00:51:15;;;;;;;;;;;15.90;99.90;;;16.26;nan;97753.16;4989248;28;19948;-65
2023/10/21 00:53:43;;;;;;;;;;;15.90;99.90;;;16.24;nan;97768.34;4986777;28;19965;-65
2023/10/21 00:56:10;;;;;;;;;;;15.90;99.90;;;16.23;nan;97764.09;4988437;28;20400;-65
2023/10/21 00:58:37;;;;;;;;;;;15.90;99.90;;;16.20;nan;97765.34;4986518;28;19953;-66
2023/10/21 01:01:09;;;;;;;;;;;15.90;99.90;;;16.23;nan;97761.47;4988116;28;19945;-65
2023/10/21 01:03:37;;;;;;;;;;;15.90;99.90;;;16.27;nan;97786.31;4991470;28;19982;-66
2023/10/21 01:06:04;;;;;;;;;;;15.90;99.90;;;16.26;nan;97792.59;4988922;28;19953;-65
2023/10/21 01:08:45;;;;;;;;;;;15.90;99.90;;;16.21;nan;97792.44;4991978;28;19941;-66
2023/10/21 01:11:12;;;;;;;;;;;15.90;99.90;;;16.19;nan;97776.06;4987820;28;19947;-65
2023/10/21 01:13:39;;;;;;;;;;;15.90;99.90;;;16.08;nan;97787.28;4988135;28;19964;-64
2023/10/21 01:16:06;;;;;;;;;;;15.80;99.90;;;16.12;nan;97794.53;4991451;28;19954;-66
2023/10/21 01:18:34;;;;;;;;;;;15.80;99.90;;;16.09;nan;97809.94;4991152;28;19958;-66
2023/10/21 01:21:02;;;;;;;;;;;15.80;99.90;;;16.10;nan;97816.78;4990034;28;19954;-65
2023/10/21 01:23:30;;;;;;;;;;;15.80;99.90;;;16.08;nan;97809.13;4988363;28;19957;-65
2023/10/21 01:25:57;;;;;;;;;;;15.80;99.90;;;16.09;nan;97837.03;4989607;28;19955;-66
2023/10/21 01:28:24;;;;;;;;;;;15.80;99.90;;;16.05;nan;97833.22;4987451;28;19944;-65
2023/10/21 01:30:51;;;;;;;;;;;15.80;99.90;;;16.05;nan;97840.31;4991690;28;19949;-66
2023/10/21 01:33:18;;;;;;;;;;;15.70;99.90;;;15.98;nan;97829.81;4989635;28;19964;-65
2023/10/21 01:35:45;;;;;;;;;;;15.70;99.90;;;15.94;nan;97854.13;4983172;28;19954;-65
2023/10/21 01:38:12;;;;;;;;;;;15.60;99.90;;;15.91;nan;97857.16;4991486;28;19951;-66
2023/10/21 01:40:39;;;;;;;;;;;15.60;99.90;;;15.86;nan;97857.00;4988377;28;19971;-65
2023/10/21 01:43:06;;;;;;;;;;;15.60;99.90;;;15.89;nan;97873.16;4991719;28;20405;-65
2023/10/21 01:45:34;;;;;;;;;;;15.60;99.90;;;15.88;nan;97887.34;4987923;28;19948;-66
2023/10/21 01:48:02;;;;;;;;;;;15.60;99.90;;;15.84;nan;97880.06;4989334;28;19994;-65
2023/10/21 01:50:30;;;;;;;;;;;15.60;99.90;;;15.84;nan;97895.84;4988146;28;20449;-66
2023/10/21 01:52:57;;;;;;;;;;;15.50;99.90;;;15.81;nan;97902.31;4981993;28;19965;-65
2023/10/21 01:55:24;;;;;;;;;;;15.50;99.90;;;15.84;nan;97914.25;4984191;28;19949;-65
2023/10/21 01:57:51;;;;;;;;;;;15.50;99.90;;;15.86;nan;97912.22;4968054;28;20314;-66
2023/10/21 02:00:19;;;;;;;;;;;15.60;99.90;;;15.89;nan;97927.56;4989052;28;19982;-66
2023/10/21 02:02:50;;;;;;;;;;;15.60;99.90;;;15.95;nan;97932.78;4989169;28;19973;-66
2023/10/21 02:05:18;;;;;;;;;;;15.60;99.90;;;15.97;nan;97935.22;4988328;28;19942;-66
2023/10/21 02:07:46;;;;;;;;;;;15.70;99.90;;;15.99;nan;97957.66;4989526;28;19944;-66
2023/10/21 02:10:13;;;;;;;;;;;15.70;99.90;;;16.02;nan;97973.00;4988756;28;19963;-66
2023/10/21 02:12:40;;;;;;;;;;;15.70;99.90;;;16.03;nan;97963.31;4990862;28;19955;-66
2023/10/21 02:15:11;;;;;;;;;;;15.70;99.90;;;16.08;nan;97976.63;4988221;28;19947;-66
2023/10/21 02:17:41;;;;;;;;;;;15.80;99.90;;;16.08;nan;97992.41;4988504;28;19944;-65
2023/10/21 02:20:12;;;;;;;;;;;15.70;99.90;;;16.08;nan;97997.66;4990131;28;20437;-65
2023/10/21 02:22:38;;;;;;;;;;;15.70;99.90;;;16.11;nan;98011.22;4986118;28;19952;-66
2023/10/21 02:25:08;;;;;;;;;;;15.70;99.90;;;16.11;nan;98010.41;4990446;28;19951;-66
2023/10/21 02:27:40;;;;;;;;;;;15.80;99.90;;;16.15;nan;98035.28;4987792;28;19951;-66
2023/10/21 02:30:10;;;;;;;;;;;15.80;99.90;;;16.19;nan;98042.53;4987739;28;19955;-66
2023/10/21 02:32:40;;;;;;;;;;;15.90;99.90;;;16.16;nan;98045.59;4989927;28;20003;-66
2023/10/21 02:35:08;;;;;;;;;;;15.90;99.90;;;16.19;nan;98053.06;4987889;28;19951;-66
2023/10/21 02:37:35;;;;;;;;;;;15.80;99.90;;;16.23;nan;98056.09;4986424;28;19953;-65
2023/10/21 02:40:03;;;;;;;;;;;15.90;99.90;;;16.21;nan;98069.44;4989930;28;19963;-66
2023/10/21 02:42:30;;;;;;;;;;;15.90;99.90;;;16.23;nan;98082.38;4988439;28;20405;-66
2023/10/21 02:44:57;;;;;;;;;;;15.90;99.90;;;16.20;nan;98085.44;4987806;28;19946;-66
2023/10/21 02:47:24;;;;;;;;;;;15.90;99.90;;;16.22;nan;98094.75;4990481;28;19945;-66
2023/10/21 02:49:51;;;;;;;;;;;15.90;99.90;;;16.28;nan;98104.44;4988063;28;20321;-66
2023/10/21 02:52:18;;;;;;;;;;;16.00;99.90;;;16.25;nan;98112.75;4990831;28;19945;-65
2023/10/21 02:54:45;;;;;;;;;;;15.90;99.90;;;16.25;nan;98122.44;4983135;28;19971;-66
2023/10/21 02:57:12;;;;;;;;;;;16.00;99.90;;;16.22;nan;98120.25;4978316;28;19949;-65
2023/10/21 02:59:39;;;;;;;;;;;15.90;99.90;;;16.20;nan;98128.34;4981285;28;21362;-66
2023/10/21 03:02:06;;;;;;;;;;;15.90;99.90;;;16.20;nan;98138.06;4992759;28;20402;-66
2023/10/21 03:04:33;;;;;;;;;;;15.90;99.90;;;16.20;nan;98148.59;4990756;28;19966;-65
2023/10/21 03:07:00;;;;;;;;;;;15.90;99.90;;;16.16;nan;98144.75;5009559;28;19961;-66
2023/10/21 03:09:27;;;;;;;;;;;15.90;99.90;;;16.15;nan;98151.84;4991247;28;19956;-65
2023/10/21 03:11:54;;;;;;;;;;;15.90;99.90;;;16.13;nan;98160.94;4994367;28;19949;-66
2023/10/21 03:14:21;;;;;;;;;;;15.80;99.90;;;16.10;nan;98158.69;4987712;28;20359;-65
2023/10/21 03:16:48;;;;;;;;;;;15.80;99.90;;;16.06;nan;98165.38;4990003;28;19947;-65
2023/10/21 03:19:15;;;;;;;;;;;15.80;99.90;;;16.08;nan;98173.88;4991670;28;19958;-66
2023/10/21 03:21:42;;;;;;;;;;;15.80;99.90;;;16.08;nan;98177.31;4990690;28;19953;-65
2023/10/21 03:24:09;;;;;;;;;;;15.80;99.90;;;16.07;nan;98182.78;4991418;28;20042;-65
2023/10/21 03:26:36;;;;;;;;;;;15.80;99.90;;;16.06;nan;98192.50;4992555;28;20337;-66
2023/10/21 03:29:03;;;;;;;;;;;15.80;99.90;;;16.03;nan;98198.19;4986347;28;19964;-65
2023/10/21 03:31:30;;;;;;;;;;;15.70;99.90;;;16.06;nan;98199.56;4976376;28;19947;-66
2023/10/21 03:33:57;;;;;;;;;;;15.70;99.90;;;16.10;nan;98208.69;4992281;28;19975;-66
2023/10/21 03:36:23;;;;;;;;;;;15.80;99.90;;;16.06;nan;98218.81;4990895;28;19946;-66
2023/10/21 03:38:51;;;;;;;;;;;15.70;99.90;;;16.05;nan;98213.75;4994052;28;19960;-66
2023/10/21 03:41:18;;;;;;;;;;;15.80;99.90;;;16.04;nan;98215.56;4990966;28;19945;-66
2023/10/21 03:43:45;;;;;;;;;;;15.70;99.90;;;15.98;nan;98221.66;4982320;28;20340;-65
2023/10/21 03:46:14;;;;;;;;;;;15.70;99.90;;;16.03;nan;98231.56;4981681;28;19952;-66
2023/10/21 03:48:42;;;;;;;;;;;15.70;99.90;;;16.01;nan;98234.41;4981397;28;20545;-65
2023/10/21 03:51:11;;;;;;;;;;;15.70;99.90;;;15.95;nan;98237.81;4990075;28;20395;-66
2023/10/21 03:53:40;;;;;;;;;;;15.70;99.90;;;15.92;nan;98242.69;4992312;28;19961;-66
2023/10/21 03:56:08;;;;;;;;;;;15.60;99.90;;;15.92;nan;98255.81;4984733;28;19949;-65
2023/10/21 03:58:36;;;;;;;;;;;15.60;99.90;;;15.91;nan;98255.00;5004361;28;19945;-65
2023/10/21 04:01:03;;;;;;;;;;;15.60;99.90;;;15.96;nan;98264.94;4985259;28;19955;-66
2023/10/21 04:03:33;;;;;;;;;;;15.60;99.90;;;15.95;nan;98271.22;4981791;28;19963;-66
2023/10/21 04:06:00;;;;;;;;;;;15.60;99.90;;;15.95;nan;98266.75;4987956;28;19945;-65
2023/10/21 04:08:28;;;;;;;;;;;15.70;99.90;;;15.98;nan;98270.78;4981611;28;19967;-66
2023/10/21 04:10:55;;;;;;;;;;;15.70;99.90;;;16.00;nan;98280.09;4992770;28;19944;-66
2023/10/21 04:13:21;;;;;;;;;;;15.70;99.90;;;15.98;nan;98289.19;4984651;28;19985;-65
2023/10/21 04:15:49;;;;;;;;;;;15.70;99.90;;;15.99;nan;98280.31;4985722;28;19952;-65
2023/10/21 04:18:17;;;;;;;;;;;15.70;99.90;;;15.99;nan;98286.38;4992183;28;19994;-66
2023/10/21 04:20:45;;;;;;;;;;;15.70;99.90;;;15.97;nan;98291.00;4984627;28;19966;-65
2023/10/21 04:23:12;;;;;;;;;;;15.70;99.90;;;15.98;nan;98289.19;4976964;28;20336;-66
2023/10/21 04:25:39;;;;;;;;;;;15.70;99.90;;;15.98;nan;98295.28;4974237;28;19946;-65
2023/10/21 04:28:06;;;;;;;;;;;15.70;99.90;;;15.96;nan;98299.13;4990355;28;19946;-65
2023/10/21 04:30:34;;;;;;;;;;;15.70;99.90;;;15.99;nan;98294.25;4989496;28;20313;-66
2023/10/21 04:33:02;;;;;;;;;;;15.70;99.90;;;16.00;nan;98295.88;4990772;28;19945;-66
2023/10/21 04:35:29;;;;;;;;;;;15.70;99.90;;;16.01;nan;98308.03;4987566;28;20314;-64
2023/10/21 04:37:56;;;;;;;;;;;15.70;99.90;;;15.98;nan;98305.81;4988938;28;19965;-65
2023/10/21 04:40:23;;;;;;;;;;;15.70;99.90;;;15.97;nan;98316.53;4991361;28;19963;-64
2023/10/21 04:42:50;;;;;;;;;;;15.70;99.90;;;15.96;nan;98315.72;4989062;28;19947;-65
2023/10/21 04:45:17;;;;;;;;;;;15.70;99.90;;;15.97;nan;98321.78;4989465;28;19963;-66
2023/10/21 04:47:44;;;;;;;;;;;15.70;99.90;;;15.96;nan;98320.16;4991297;28;19950;-66
2023/10/21 04:50:11;;;;;;;;;;;15.70;99.90;;;15.94;nan;98327.44;4989052;28;19971;-65
2023/10/21 04:52:38;;;;;;;;;;;15.60;99.90;;;15.95;nan;98336.94;4986874;28;19958;-66
2023/10/21 04:55:05;;;;;;;;;;;15.70;99.90;;;15.92;nan;98342.59;4979365;28;20349;-65
2023/10/21 04:57:32;;;;;;;;;;;15.60;99.90;;;15.93;nan;98342.41;4980035;28;19956;-65
2023/10/21 04:59:59;;;;;;;;;;;15.60;99.90;;;15.94;nan;98349.28;4980942;28;19969;-66
2023/10/21 05:02:26;;;;;;;;;;;15.70;99.90;;;15.95;nan;98360.63;4990057;28;19949;-65
2023/10/21 05:04:53;;;;;;;;;;;15.60;99.90;;;15.97;nan;98366.50;4992584;28;19948;-66
2023/10/21 05:07:20;;;;;;;;;;;15.70;99.90;;;16.00;nan;98374.78;4986396;28;19986;-65
2023/10/21 05:09:47;;;;;;;;;;;15.70;99.90;;;15.95;nan;98374.56;4995664;28;19954;-66
2023/10/21 05:12:14;;;;;;;;;;;15.70;99.90;;;15.96;nan;98380.63;4994331;28;19950;-66
2023/10/21 05:14:41;;;;;;;;;;;15.70;99.90;;;15.95;nan;98392.19;4982808;28;19971;-66
2023/10/21 05:17:08;;;;;;;;;;;15.70;99.90;;;15.99;nan;98398.66;4990460;28;19949;-66
2023/10/21 05:19:35;;;;;;;;;;;15.70;99.90;;;15.97;nan;98400.69;4990662;28;20012;-66
2023/10/21 05:22:02;;;;;;;;;;;15.70;99.90;;;15.95;nan;98400.06;4977820;28;19945;-65
2023/10/21 05:24:29;;;;;;;;;;;15.70;99.90;;;15.94;nan;98408.94;4981611;28;19943;-66
2023/10/21 05:26:56;;;;;;;;;;;15.70;99.90;;;15.95;nan;98418.47;4990435;28;19941;-66
2023/10/21 05:29:23;;;;;;;;;;;15.70;99.90;;;15.92;nan;98418.84;4987417;28;19962;-65
2023/10/21 05:31:50;;;;;;;;;;;15.70;99.90;;;15.89;nan;98424.50;4970146;28;19961;-66
2023/10/21 05:34:20;;;;;;;;;;;15.60;99.90;;;15.84;nan;98430.38;4978145;28;19966;-65
2023/10/21 05:36:47;;;;;;;;;;;15.60;99.90;;;15.82;nan;98437.63;4972799;28;19996;-65
2023/10/21 05:39:14;;;;;;;;;;;15.60;99.90;;;15.82;nan;98439.47;4977188;28;19965;-65
2023/10/21 05:41:41;;;;;;;;;;;15.60;99.90;;;15.83;nan;98446.31;4988560;28;19961;-65
2023/10/21 05:44:09;;;;;;;;;;;15.50;99.90;;;15.86;nan;98456.47;4989282;28;19947;-66
2023/10/21 05:46:35;;;;;;;;;;;15.60;99.90;;;15.81;nan;98458.84;4977910;28;19953;-65
2023/10/21 05:49:03;;;;;;;;;;;15.50;99.90;;;15.80;nan;98465.13;4977661;28;20368;-66
2023/10/21 05:51:30;;;;;;;;;;;15.50;99.90;;;15.79;nan;98466.13;4991318;28;19950;-65
2023/10/21 05:53:57;;;;;;;;;;;15.50;99.90;;;15.77;nan;98476.03;4982760;28;19960;-66
2023/10/21 05:56:25;;;;;;;;;;;15.40;99.90;;;15.76;nan;98483.09;4988995;28;19946;-66
2023/10/21 05:58:52;;;;;;;;;;;15.50;99.90;;;15.78;nan;98483.72;4974665;28;19962;-65
2023/10/21 06:01:19;;;;;;;;;;;15.50;99.90;;;15.78;nan;98496.06;4971919;28;19946;-65
2023/10/21 06:03:45;;;;;;;;;;;15.50;99.90;;;15.75;nan;98497.28;4987510;28;20455;-65
2023/10/21 06:06:13;;;;;;;;;;;15.50;99.90;;;15.76;nan;98513.88;4988559;28;19944;-64
2023/10/21 06:08:40;;;;;;;;;;;15.50;99.90;;;15.70;nan;98515.44;4975659;28;19967;-66
2023/10/21 06:11:08;;;;;;;;;;;15.50;99.90;;;15.68;nan;98522.69;4984858;28;19944;-66
2023/10/21 06:13:35;;;;;;;;;;;15.40;99.90;;;15.68;nan;98535.03;4987182;28;19951;-65
2023/10/21 06:16:02;;;;;;;;;;;15.40;99.90;;;15.65;nan;98544.13;4984398;28;19952;-66
2023/10/21 06:18:30;;;;;;;;;;;15.40;99.90;;;15.69;nan;98555.06;4984499;28;19958;-65
2023/10/21 06:20:57;;;;;;;;;;;15.40;99.90;;;15.70;nan;98565.38;4988215;28;19953;-65
2023/10/21 06:23:24;;;;;;;;;;;15.50;99.90;;;15.75;nan;98577.94;4988800;28;20014;-64
2023/10/21 06:25:51;;;;;;;;;;;15.50;99.90;;;15.78;nan;98596.78;4989366;28;20441;-66
2023/10/21 06:28:18;;;;;;;;;;;15.60;99.90;;;15.80;nan;98607.13;4990357;28;19944;-66
2023/10/21 06:30:45;;;;;;;;;;;15.50;99.90;;;15.80;nan;98596.59;4987482;28;19979;-65
2023/10/21 06:33:12;;;;;;;;;;;15.60;99.90;;;15.85;nan;98612.59;4989237;28;19944;-66
2023/10/21 06:35:39;;;;;;;;;;;15.60;99.90;;;15.86;nan;98615.06;4993008;28;20623;-66
2023/10/21 06:38:07;;;;;;;;;;;15.60;99.90;;;15.87;nan;98626.34;4979895;28;20319;-65
2023/10/21 06:40:34;;;;;;;;;;;15.60;99.90;;;16.00;nan;98631.72;4991450;28;19978;-65
2023/10/21 06:43:18;;;;;;;;;;;15.70;99.90;;;16.23;nan;98624.34;4991262;28;20008;-65
2023/10/21 06:45:45;;;;;;;;;;;15.90;99.90;;;16.37;nan;98639.22;4991702;28;19965;-65
2023/10/21 06:48:12;;;;;;;;;;;16.00;99.90;;;16.45;nan;98641.69;4993314;28;19940;-66
2023/10/21 06:50:39;;;;;;;;;;;16.20;99.90;;;16.39;nan;98642.47;4987118;28;19966;-66
2023/10/21 06:53:06;;;;;;;;;;;16.20;99.90;;;16.33;nan;98651.94;4979930;28;19958;-66
2023/10/21 06:55:41;;;;;;;;;;;16.10;99.90;;;16.23;nan;98658.56;4992050;28;19964;-65
2023/10/21 06:58:09;;;;;;;;;;;16.00;99.90;;;16.13;nan;98673.88;4991089;28;19950;-65
2023/10/21 07:00:36;;;;;;;;;;;15.90;99.90;;;16.06;nan;98678.28;4989833;28;20439;-66
2023/10/21 07:03:07;;;;;;;;;;;15.80;99.90;;;16.05;nan;98680.13;4974807;28;19943;-66
2023/10/21 07:05:35;;;;;;;;;;;15.80;99.90;;;16.05;nan;98692.47;4991221;28;20456;-65
2023/10/21 07:08:03;;;;;;;;;;;15.80;99.90;;;16.06;nan;98699.31;4991941;28;19941;-66
2023/10/21 07:10:30;;;;;;;;;;;15.80;99.90;;;16.07;nan;98707.06;4992019;28;19956;-66
2023/10/21 07:12:59;;;;;;;;;;;15.80;99.90;;;16.08;nan;98705.22;4991051;28;19946;-65
2023/10/21 07:15:28;;;;;;;;;;;15.90;99.90;;;16.16;nan;98712.97;4977755;28;19964;-65
2023/10/21 07:17:56;;;;;;;;;;;15.90;99.90;;;16.58;nan;98722.56;4978816;28;19946;-66
2023/10/21 07:20:24;;;;;;;;;;;16.20;99.90;;;17.98;nan;98719.13;4993236;28;19956;-65
2023/10/21 07:22:50;;;;;;;;;;;17.40;99.90;;;19.71;nan;98718.97;4987754;28;19951;-65
2023/10/21 07:25:20;;;;;;;;;;;19.20;99.90;;;21.54;nan;98732.16;4992879;28;19969;-66
2023/10/21 07:27:47;;;;;;;;;;;21.10;99.90;;;23.33;nan;98745.56;4990168;28;19941;-66
2023/10/21 07:30:15;;;;;;;;;;;22.90;99.90;;;24.96;nan;98748.78;4982346;28;19977;-64
2023/10/21 07:32:42;;;;;;;;;;;24.70;99.90;;;26.43;nan;98757.97;4988982;28;20465;-64
2023/10/21 07:35:09;;;;;;;;;;;26.40;99.90;;;26.84;nan;98759.88;4989132;28;20548;-63
2023/10/21 07:37:37;;;;;;;;;;;27.00;98.90;;;26.26;nan;98770.69;4990638;28;19945;-65
2023/10/21 07:40:06;;;;;;;;;;;26.60;98.20;;;25.30;nan;98779.59;4992674;28;20034;-64
2023/10/21 07:42:32;;;;;;;;;;;25.60;99.20;;;24.06;nan;98773.03;4990181;28;19945;-66
2023/10/21 07:44:59;;;;;;;;;;;24.60;99.30;;;22.83;nan;98774.59;4990757;28;19955;-65
2023/10/21 07:47:28;;;;;;;;;;;23.20;99.90;;;21.77;nan;98779.97;4979382;28;19940;-65
2023/10/21 07:49:55;;;;;;;;;;;22.10;99.90;;;20.92;nan;98780.22;4985271;28;19958;-66
2023/10/21 07:52:22;;;;;;;;;;;21.10;99.90;;;20.20;nan;98775.59;4990323;28;19943;-66
2023/10/21 07:54:49;;;;;;;;;;;20.30;99.90;;;19.67;nan;98783.13;4986029;28;19953;-66
2023/10/21 07:57:16;;;;;;;;;;;19.70;99.90;;;19.86;nan;98782.16;4987463;28;19948;-66
2023/10/21 07:59:44;;;;;;;;;;;19.70;99.90;;;20.89;nan;98781.50;4987053;28;20008;-66
2023/10/21 08:02:11;;;;;;;;;;;20.40;99.90;;;22.34;nan;98783.81;4979236;28;19939;-66
2023/10/21 08:04:38;;;;;;;;;;;21.80;99.90;;;24.26;nan;98797.31;4981783;28;19945;-66
2023/10/21 08:07:05;;;;;;;;;;;23.70;99.90;;;25.52;nan;98796.44;4988926;28;19944;-66
2023/10/21 08:09:32;;;;;;;;;;;25.30;96.90;;;26.76;nan;98797.03;4977690;28;20374;-67
2023/10/21 08:12:00;;;;;;;;;;;26.60;95.10;;;27.33;nan;98808.53;4983416;28;19947;-65
2023/10/21 08:14:30;;;;;;;;;;;27.30;92.70;;;26.33;nan;98807.91;4986631;28;19977;-65
2023/10/21 08:16:58;;;;;;;;;;;26.50;91.70;;;25.21;nan;98815.81;4991309;28;20299;-67
2023/10/21 08:19:25;;;;;;;;;;;25.50;92.30;;;24.00;nan;98831.75;4991519;28;19961;-66
2023/10/21 08:21:52;;;;;;;;;;;24.30;93.20;;;22.93;nan;98818.19;4990567;28;19949;-66
2023/10/21 08:24:18;;;;;;;;;;;23.20;94.90;;;22.22;nan;98825.50;4990353;28;19940;-66
2023/10/21 08:26:45;;;;;;;;;;;22.40;96.10;;;22.55;nan;98840.91;4991909;28;19968;-66
2023/10/21 08:29:12;;;;;;;;;;;22.50;96.50;;;23.52;nan;98840.97;4990667;28;19961;-66
2023/10/21 08:31:40;;;;;;;;;;;23.50;95.50;;;24.30;nan;98849.09;4984729;28;19946;-66
2023/10/21 08:34:11;;;;;;;;;;;24.20;94.40;;;24.72;nan;98854.84;4984933;28;19949;-67
2023/10/21 08:36:40;;;;;;;;;;;24.70;93.70;;;24.94;nan;98852.22;4984044;28;20398;-66
2023/10/21 08:39:07;;;;;;;;;;;24.80;93.20;;;26.12;nan;98857.72;4991257;28;19953;-66
2023/10/21 08:41:37;;;;;;;;;;;25.90;92.00;;;27.53;nan;98859.53;4990815;28;19952;-63
2023/10/21 08:44:05;;;;;;;;;;;27.20;90.00;;;28.34;nan;98870.47;4991471;28;19944;-65
2023/10/21 08:46:33;;;;;;;;;;;28.40;85.70;;;27.47;nan;98867.81;4989158;28;19945;-65
2023/10/21 08:49:03;;;;;;;;;;;27.70;82.60;;;27.37;nan;98871.25;4991622;28;19964;-65
2023/10/21 08:51:32;;;;;;;;;;;27.40;84.20;;;27.44;nan;98879.03;4981793;28;19947;-64
2023/10/21 08:54:03;;;;;;;;;;;27.50;83.20;;;27.20;nan;98878.63;4987648;28;19948;-65
2023/10/21 08:56:31;;;;;;;;;;;27.20;83.80;;;26.87;nan;98879.78;4984306;28;20007;-65
2023/10/21 08:58:57;;;;;;;;;;;26.90;83.70;;;26.34;nan;98881.72;4970170;28;19958;-65
2023/10/21 09:01:24;;;;;;;;;;;26.50;83.30;;;24.92;nan;98881.03;4983416;28;19939;-64
2023/10/21 09:03:51;;;;;;;;;;;25.30;85.00;;;23.91;nan;98881.94;4978282;28;20301;-64
2023/10/21 09:06:18;;;;;;;;;;;24.10;88.00;;;23.51;nan;98891.81;4991107;28;19956;-66
2023/10/21 09:08:47;;;;;;;;;;;23.60;90.50;;;22.89;nan;98890.66;4990251;28;19981;-66
2023/10/21 09:11:19;;;;;;;;;;;23.00;90.60;;;23.21;nan;98878.63;4988779;28;19943;-66
2023/10/21 09:13:46;;;;;;;;;;;23.00;91.80;;;23.59;nan;98897.56;4989173;28;19944;-66
2023/10/21 09:16:26;;;;;;;;;;;23.50;90.30;;;22.89;nan;98902.09;4985442;28;19992;-65
2023/10/21 09:18:57;;;;;;;;;;;22.90;90.60;;;21.90;nan;98904.59;4991420;28;19965;-65
2023/10/21 09:21:38;;;;;;;;;;;22.00;91.80;;;21.58;nan;98909.25;4985473;28;19947;-64
2023/10/21 09:24:19;;;;;;;;;;;21.40;93.20;;;22.82;nan;98901.41;4980391;28;20340;-65
2023/10/21 09:26:47;;;;;;;;;;;22.20;92.60;;;23.70;nan;98919.88;4998019;28;19991;-65
2023/10/21 09:29:19;;;;;;;;;;;23.10;91.90;;;24.98;nan;98920.88;4988842;28;19972;-66
2023/10/21 09:31:55;;;;;;;;;;;24.30;90.80;;;26.01;nan;98928.13;4991191;28;20418;-66
2023/10/21 09:34:25;;;;;;;;;;;25.70;86.30;;;27.43;nan;98926.44;4988244;28;19945;-65
2023/10/21 09:36:56;;;;;;;;;;;27.10;83.10;;;28.63;nan;98929.78;4989182;28;19967;-66
2023/10/21 09:39:26;;;;;;;;;;;28.60;79.50;;;29.28;nan;98929.78;4990234;28;19955;-66
2023/10/21 09:41:54;;;;;;;;;;;29.40;75.90;;;28.56;nan;98932.72;4988579;28;19940;-66
2023/10/21 09:44:21;;;;;;;;;;;28.70;75.00;;;27.74;nan;98923.91;4990633;28;19952;-65
2023/10/21 09:46:49;;;;;;;;;;;27.90;75.30;;;26.51;nan;98922.53;4988574;28;19943;-65
2023/10/21 09:49:16;;;;;;;;;;;26.70;77.20;;;25.16;nan;98930.47;4989864;28;20357;-65
2023/10/21 09:51:53;;;;;;;;;;;25.40;79.50;;;24.40;nan;98937.25;4983227;28;19955;-65
2023/10/21 09:54:48;;;;;;;;;;;24.40;82.70;;;23.71;nan;98924.97;4983324;28;19952;-66
2023/10/21 09:57:15;;;;;;;;;;;23.70;84.80;;;23.26;nan;98929.28;4991354;28;19942;-65
2023/10/21 09:59:44;;;;;;;;;;;23.10;86.20;;;22.82;nan;98938.66;4985504;28;19983;-65
2023/10/21 10:02:14;;;;;;;;;;;22.70;87.20;;;22.05;nan;98938.72;4980709;28;19940;-65
2023/10/21 10:04:41;;;;;;;;;;;22.00;88.70;;;21.55;nan;98936.22;4974931;28;19946;-65
2023/10/21 10:07:08;;;;;;;;;;;21.50;90.30;;;21.24;nan;98946.97;4979771;28;19946;-65
2023/10/21 10:09:42;;;;;;;;;;;21.10;91.00;;;20.83;nan;98944.88;4988745;28;19968;-67
2023/10/21 10:12:23;;;;;;;;;;;20.70;91.90;;;20.43;nan;98940.06;4987355;28;19945;-65
2023/10/21 10:14:53;;;;;;;;;;;20.30;92.50;;;20.08;nan;98929.84;4990561;28;19948;-65
2023/10/21 10:17:49;;;;;;;;;;;19.90;93.10;;;20.11;nan;98932.09;4984855;28;19950;-64
2023/10/21 10:20:22;;;;;;;;;;;19.80;93.90;;;20.18;nan;98934.69;4981688;28;19967;-65
2023/10/21 10:23:07;;;;;;;;;;;19.90;94.20;;;20.64;nan;98939.72;4985061;28;20270;-65
2023/10/21 10:25:38;;;;;;;;;;;20.30;94.30;;;21.69;nan;98930.78;4976657;28;19947;-65
2023/10/21 10:28:26;;;;;;;;;;;21.30;93.00;;;22.13;nan;98925.13;4987393;28;20157;-65
2023/10/21 10:30:54;;;;;;;;;;;21.80;92.10;;;22.13;nan;98920.63;4983550;28;19937;-65
2023/10/21 10:33:38;;;;;;;;;;;21.80;92.10;;;21.94;nan;98927.03;4983142;28;19953;-65
2023/10/21 10:36:12;;;;;;;;;;;21.60;92.10;;;21.55;nan;98919.53;4987293;28;19962;-65
2023/10/21 10:38:44;;;;;;;;;;;21.20;92.50;;;21.14;nan;98925.47;4987985;28;19947;-65
2023/10/21 10:41:15;;;;;;;;;;;20.90;93.00;;;20.76;nan;98909.63;4990289;28;20368;-65
2023/10/21 10:43:49;;;;;;;;;;;20.50;92.80;;;20.46;nan;98919.28;4989017;28;19943;-64
2023/10/21 10:46:17;;;;;;;;;;;20.20;93.00;;;20.12;nan;98923.09;4989460;28;19945;-65
2023/10/21 10:48:46;;;;;;;;;;;19.90;92.90;;;19.94;nan;98925.66;4990382;28;20048;-65
2023/10/21 10:51:17;;;;;;;;;;;19.70;93.30;;;19.78;nan;98920.03;4990672;28;19943;-65
2023/10/21 10:53:58;;;;;;;;;;;19.50;93.10;;;19.69;nan;98916.00;4989602;28;19945;-65
2023/10/21 10:56:38;;;;;;;;;;;19.30;93.60;;;19.67;nan;98923.34;4985912;28;19955;-65
2023/10/21 10:59:05;;;;;;;;;;;19.30;94.40;;;19.72;nan;98926.19;4990232;28;19964;-64
2023/10/21 11:01:32;;;;;;;;;;;19.40;95.90;;;19.74;nan;98913.53;4987702;28;19938;-64
2023/10/21 11:04:01;;;;;;;;;;;19.40;94.40;;;19.67;nan;98913.56;4989764;28;19957;-68
2023/10/21 11:06:35;;;;;;;;;;;19.40;94.00;;;19.67;nan;98929.44;4987546;28;19965;-66
2023/10/21 11:09:30;;;;;;;;;;;19.40;94.90;;;19.63;nan;98933.53;4989992;28;20460;-66
2023/10/21 11:11:53;;;;;;;;;;;19.30;95.30;;;19.60;nan;98928.66;4985637;28;19949;-66
2023/10/21 11:14:35;;;;;;;;;;;19.20;95.50;;;19.50;nan;98936.22;4987979;28;19976;-66
2023/10/21 11:17:02;;;;;;;;;;;19.20;95.20;;;19.53;nan;98927.06;4993754;28;19966;-66
2023/10/21 11:19:30;;;;;;;;;;;19.20;95.20;;;19.53;nan;98929.69;4992831;28;19958;-65
2023/10/21 11:21:57;;;;;;;;;;;19.20;95.10;;;19.43;nan;98935.41;4993748;28;19943;-65
2023/10/21 11:24:26;;;;;;;;;;;19.10;94.80;;;19.38;nan;98923.84;4990738;28;20294;-65
2023/10/21 11:26:53;;;;;;;;;;;19.00;95.40;;;19.41;nan;98926.06;4992827;28;19947;-66
2023/10/21 11:29:20;;;;;;;;;;;19.00;95.20;;;19.32;nan;98915.66;4992515;28;19955;-65
2023/10/21 11:31:49;;;;;;;;;;;19.00;94.90;;;19.28;nan;98908.34;4989516;28;19960;-65
2023/10/21 11:34:18;;;;;;;;;;;18.90;94.90;;;19.25;nan;98914.09;4993098;28;20399;-65
2023/10/21 11:36:48;;;;;;;;;;;18.90;94.90;;;19.26;nan;98921.78;4992955;28;19958;-64
2023/10/21 11:39:16;;;;;;;;;;;18.90;95.20;;;19.28;nan;98918.94;4976310;28;20011;-65
2023/10/21 11:41:49;;;;;;;;;;;18.90;94.80;;;19.30;nan;98919.53;4993209;28;19995;-66